BAW221 LXGB-LEPA
Flight info
| Callsign | BAW221 |
|---|---|
| Flight time | N/A |
| Altitude | 38000 |
| Route | DCT PIMOS M445 RIXUR N851 RUXET RUXET2P |
| Aircraft | A20N/M-SDE2E3FGHIRWXY/LB1 |
Departure
| Time | 2026-04-30 14:13 |
|---|---|
| Airport | Gibraltar Airport (LXGB) |
Arrival
| Time | N/A |
|---|---|
| Airport | Palma de Mallorca Airport (LEPA) |
| Time | Latitude | Longitude | Altitude | Speed | Heading |
|---|---|---|---|---|---|
| 2026-04-30 13:52 | 36.15306 | -5.34628 | 17 ft | 0 kts | 359° |
| 2026-04-30 14:03 | 36.15295 | -5.34628 | 17 ft | 2 kts | 359° |
| 2026-04-30 14:04 | 36.15278 | -5.34628 | 17 ft | 3 kts | 359° |
| 2026-04-30 14:04 | 36.15259 | -5.34627 | 17 ft | 3 kts | 359° |
| 2026-04-30 14:04 | 36.15241 | -5.34627 | 18 ft | 3 kts | 14° |
| 2026-04-30 14:04 | 36.15225 | -5.34636 | 22 ft | 3 kts | 36° |
| 2026-04-30 14:05 | 36.15222 | -5.34637 | 21 ft | 0 kts | 51° |
| 2026-04-30 14:06 | 36.15225 | -5.34629 | 21 ft | 3 kts | 65° |
| 2026-04-30 14:07 | 36.15231 | -5.34604 | 22 ft | 1 kts | 78° |
| 2026-04-30 14:07 | 36.15232 | -5.34580 | 19 ft | 3 kts | 88° |
| 2026-04-30 14:07 | 36.15239 | -5.34554 | 18 ft | 2 kts | 63° |
| 2026-04-30 14:08 | 36.15264 | -5.34528 | 17 ft | 0 kts | 37° |
| 2026-04-30 14:08 | 36.15266 | -5.34526 | 17 ft | 1 kts | 38° |
| 2026-04-30 14:08 | 36.15282 | -5.34507 | 17 ft | 0 kts | 88° |
| 2026-04-30 14:09 | 36.15280 | -5.34505 | 17 ft | 0 kts | 116° |
| 2026-04-30 14:09 | 36.15279 | -5.34504 | 17 ft | 0 kts | 126° |
| 2026-04-30 14:09 | 36.15270 | -5.34506 | 19 ft | 3 kts | 179° |
| 2026-04-30 14:10 | 36.15240 | -5.34486 | 19 ft | 7 kts | 123° |
| 2026-04-30 14:10 | 36.15236 | -5.34403 | 14 ft | 13 kts | 86° |
| 2026-04-30 14:10 | 36.15244 | -5.34284 | 15 ft | 12 kts | 86° |
| 2026-04-30 14:10 | 36.15243 | -5.34266 | 15 ft | 1 kts | 93° |
| 2026-04-30 14:11 | 36.15239 | -5.34253 | 15 ft | 0 kts | 119° |
| 2026-04-30 14:11 | 36.15238 | -5.34250 | 15 ft | 2 kts | 117° |
| 2026-04-30 14:11 | 36.15234 | -5.34243 | 15 ft | 0 kts | 128° |
| 2026-04-30 14:12 | 36.15232 | -5.34241 | 15 ft | 2 kts | 138° |
| 2026-04-30 14:12 | 36.15193 | -5.34232 | 15 ft | 9 kts | 175° |
| 2026-04-30 14:12 | 36.15149 | -5.34261 | 15 ft | 7 kts | 254° |
| 2026-04-30 14:12 | 36.15147 | -5.34275 | 15 ft | 0 kts | 262° |
| 2026-04-30 14:13 | 36.15127 | -5.34805 | 24 ft | 106 kts | 267° |
| 2026-04-30 14:13 | 36.15098 | -5.35552 | 42 ft | 154 kts | 266° |
| 2026-04-30 14:13 | 36.15059 | -5.37591 | 711 ft | 197 kts | 266° |
| 2026-04-30 14:13 | 36.15001 | -5.39278 | 1748 ft | 189 kts | 266° |
| 2026-04-30 14:14 | 36.14924 | -5.40921 | 2679 ft | 199 kts | 263° |
| 2026-04-30 14:14 | 36.14431 | -5.42569 | 3366 ft | 219 kts | 235° |
| 2026-04-30 14:14 | 36.13199 | -5.43807 | 3997 ft | 242 kts | 203° |
| 2026-04-30 14:14 | 36.11480 | -5.44120 | 4759 ft | 260 kts | 173° |
| 2026-04-30 14:15 | 36.09804 | -5.43300 | 5831 ft | 264 kts | 145° |
| 2026-04-30 14:15 | 36.08589 | -5.41555 | 6795 ft | 275 kts | 117° |
| 2026-04-30 14:15 | 36.08143 | -5.39239 | 7783 ft | 283 kts | 90° |
| 2026-04-30 14:15 | 36.08582 | -5.36848 | 8785 ft | 290 kts | 66° |
| 2026-04-30 14:16 | 36.09503 | -5.34593 | 9783 ft | 296 kts | 65° |
| 2026-04-30 14:16 | 36.10328 | -5.32237 | 10581 ft | 306 kts | 72° |
| 2026-04-30 14:16 | 36.10944 | -5.29640 | 10957 ft | 330 kts | 79° |
| 2026-04-30 14:16 | 36.11379 | -5.26766 | 11380 ft | 349 kts | 83° |
| 2026-04-30 14:17 | 36.11710 | -5.23759 | 12199 ft | 354 kts | 85° |
| 2026-04-30 14:17 | 36.12005 | -5.20717 | 13086 ft | 359 kts | 86° |
| 2026-04-30 14:17 | 36.12298 | -5.17633 | 13941 ft | 364 kts | 86° |
| 2026-04-30 14:17 | 36.12597 | -5.14503 | 14702 ft | 369 kts | 86° |
| 2026-04-30 14:18 | 36.12902 | -5.11337 | 15455 ft | 373 kts | 85° |
| 2026-04-30 14:18 | 36.13214 | -5.08125 | 16218 ft | 378 kts | 85° |
| 2026-04-30 14:18 | 36.13856 | -5.01577 | 17677 ft | 388 kts | 85° |
| 2026-04-30 14:19 | 36.14512 | -4.94868 | 19047 ft | 397 kts | 85° |
| 2026-04-30 14:19 | 36.15015 | -4.91498 | 19707 ft | 402 kts | 74° |
| 2026-04-30 14:19 | 36.16170 | -4.88322 | 20292 ft | 409 kts | 59° |
| 2026-04-30 14:20 | 36.17959 | -4.85556 | 20885 ft | 415 kts | 46° |
| 2026-04-30 14:20 | 36.19974 | -4.82978 | 21492 ft | 419 kts | 46° |
| 2026-04-30 14:20 | 36.24048 | -4.77755 | 22671 ft | 428 kts | 46° |
| 2026-04-30 14:21 | 36.26123 | -4.75081 | 23254 ft | 433 kts | 46° |
| 2026-04-30 14:21 | 36.28220 | -4.72373 | 23796 ft | 438 kts | 46° |
| 2026-04-30 14:21 | 36.32477 | -4.66861 | 24753 ft | 446 kts | 46° |
| 2026-04-30 14:22 | 36.34632 | -4.64067 | 25215 ft | 450 kts | 46° |
| 2026-04-30 14:22 | 36.39006 | -4.58388 | 26117 ft | 458 kts | 46° |
| 2026-04-30 14:22 | 36.41189 | -4.55551 | 26512 ft | 463 kts | 46° |
| 2026-04-30 14:23 | 36.45661 | -4.49730 | 27434 ft | 469 kts | 46° |
| 2026-04-30 14:23 | 36.50198 | -4.43815 | 28233 ft | 476 kts | 46° |
| 2026-04-30 14:24 | 36.54802 | -4.37803 | 28985 ft | 483 kts | 46° |
| 2026-04-30 14:24 | 36.57125 | -4.34765 | 29363 ft | 486 kts | 45° |
| 2026-04-30 14:25 | 36.61821 | -4.28615 | 30086 ft | 493 kts | 45° |
| 2026-04-30 14:25 | 36.66553 | -4.22408 | 30681 ft | 500 kts | 46° |
| 2026-04-30 14:26 | 36.71357 | -4.16094 | 31361 ft | 504 kts | 46° |
| 2026-04-30 14:26 | 36.73767 | -4.12921 | 31708 ft | 505 kts | 47° |
| 2026-04-30 14:26 | 36.78615 | -4.06532 | 32425 ft | 508 kts | 47° |
| 2026-04-30 14:27 | 36.81045 | -4.03325 | 32805 ft | 509 kts | 47° |
| 2026-04-30 14:27 | 36.83481 | -4.00109 | 33128 ft | 511 kts | 47° |
| 2026-04-30 14:27 | 36.85926 | -3.96875 | 33476 ft | 512 kts | 48° |
| 2026-04-30 14:28 | 36.90823 | -3.90390 | 34133 ft | 513 kts | 48° |
| 2026-04-30 14:28 | 36.92442 | -3.88242 | 34367 ft | 512 kts | 48° |
| 2026-04-30 14:28 | 36.95667 | -3.83958 | 34931 ft | 508 kts | 48° |
| 2026-04-30 14:28 | 36.98082 | -3.80749 | 35310 ft | 507 kts | 48° |
| 2026-04-30 14:29 | 37.02126 | -3.75366 | 35854 ft | 505 kts | 48° |
| 2026-04-30 14:29 | 37.06915 | -3.68980 | 36700 ft | 500 kts | 48° |
| 2026-04-30 14:30 | 37.12923 | -3.58547 | 37737 ft | 488 kts | 66° |
| 2026-04-30 14:31 | 37.15920 | -3.50927 | 38079 ft | 486 kts | 66° |
| 2026-04-30 14:31 | 37.20400 | -3.39621 | 38066 ft | 485 kts | 66° |
| 2026-04-30 14:32 | 37.24878 | -3.28241 | 38066 ft | 485 kts | 66° |
| 2026-04-30 14:33 | 37.27856 | -3.20647 | 38064 ft | 484 kts | 66° |
| 2026-04-30 14:33 | 37.32307 | -3.09265 | 38055 ft | 484 kts | 66° |
| 2026-04-30 14:34 | 37.35267 | -3.01670 | 38046 ft | 483 kts | 66° |
| 2026-04-30 14:34 | 37.38204 | -2.94117 | 38048 ft | 484 kts | 66° |
| 2026-04-30 14:35 | 37.42633 | -2.82697 | 38048 ft | 484 kts | 66° |
| 2026-04-30 14:36 | 37.45576 | -2.75080 | 38044 ft | 484 kts | 66° |
| 2026-04-30 14:36 | 37.48521 | -2.67445 | 38050 ft | 484 kts | 66° |
| 2026-04-30 14:37 | 37.51453 | -2.59820 | 38043 ft | 484 kts | 66° |
| 2026-04-30 14:37 | 37.54391 | -2.52163 | 38054 ft | 485 kts | 66° |
| 2026-04-30 14:38 | 37.57306 | -2.44547 | 38059 ft | 485 kts | 66° |
| 2026-04-30 14:38 | 37.60239 | -2.36865 | 38068 ft | 486 kts | 66° |
| 2026-04-30 14:39 | 37.63173 | -2.29163 | 38075 ft | 487 kts | 66° |
| 2026-04-30 14:39 | 37.66080 | -2.21508 | 38069 ft | 486 kts | 66° |
| 2026-04-30 14:40 | 37.70449 | -2.09971 | 38073 ft | 485 kts | 66° |
| 2026-04-30 14:40 | 37.73353 | -2.02279 | 38067 ft | 485 kts | 67° |
| 2026-04-30 14:41 | 37.76246 | -1.94594 | 38058 ft | 485 kts | 66° |
| 2026-04-30 14:41 | 37.79139 | -1.86894 | 38049 ft | 484 kts | 66° |
| 2026-04-30 14:42 | 37.82008 | -1.79236 | 38046 ft | 485 kts | 67° |
| 2026-04-30 14:42 | 37.84895 | -1.71512 | 38048 ft | 485 kts | 67° |
| 2026-04-30 14:43 | 37.87776 | -1.63786 | 38038 ft | 485 kts | 67° |
| 2026-04-30 14:43 | 37.90654 | -1.56046 | 38035 ft | 486 kts | 67° |
| 2026-04-30 14:44 | 37.93528 | -1.48293 | 38034 ft | 485 kts | 66° |
| 2026-04-30 14:44 | 37.96378 | -1.40591 | 38022 ft | 483 kts | 67° |
| 2026-04-30 14:45 | 37.99228 | -1.32867 | 38028 ft | 484 kts | 67° |
| 2026-04-30 14:45 | 38.02074 | -1.25135 | 38026 ft | 483 kts | 67° |
| 2026-04-30 14:46 | 38.04911 | -1.17407 | 38034 ft | 484 kts | 67° |
| 2026-04-30 14:46 | 38.07728 | -1.09712 | 38033 ft | 483 kts | 67° |
| 2026-04-30 14:47 | 38.10558 | -1.01963 | 38054 ft | 484 kts | 67° |
| 2026-04-30 14:47 | 38.13385 | -0.94204 | 38050 ft | 484 kts | 67° |
| 2026-04-30 14:48 | 38.16208 | -0.86436 | 38059 ft | 484 kts | 67° |
| 2026-04-30 14:48 | 38.19021 | -0.78672 | 38074 ft | 484 kts | 67° |
| 2026-04-30 14:49 | 38.21829 | -0.70906 | 38048 ft | 483 kts | 67° |
| 2026-04-30 14:49 | 38.24610 | -0.63190 | 38046 ft | 483 kts | 67° |
| 2026-04-30 14:50 | 38.28697 | -0.51481 | 38045 ft | 482 kts | 70° |
| 2026-04-30 14:51 | 38.32420 | -0.39588 | 38052 ft | 482 kts | 70° |
| 2026-04-30 14:52 | 38.36189 | -0.27698 | 38048 ft | 482 kts | 70° |
| 2026-04-30 14:52 | 38.40117 | -0.15885 | 38051 ft | 482 kts | 69° |
| 2026-04-30 14:53 | 38.44039 | -0.04124 | 38056 ft | 482 kts | 69° |
| 2026-04-30 14:54 | 38.49168 | 0.11718 | 38052 ft | 482 kts | 69° |
| 2026-04-30 14:55 | 38.52958 | 0.23574 | 38049 ft | 483 kts | 69° |
| 2026-04-30 14:56 | 38.58023 | 0.39469 | 38036 ft | 483 kts | 69° |
| 2026-04-30 14:57 | 38.61809 | 0.51408 | 38052 ft | 483 kts | 69° |
| 2026-04-30 14:58 | 38.66596 | 0.67386 | 38047 ft | 479 kts | 77° |
| 2026-04-30 14:58 | 38.68253 | 0.79937 | 38043 ft | 479 kts | 84° |
| 2026-04-30 15:00 | 38.70592 | 1.01078 | 38042 ft | 479 kts | 84° |
| 2026-04-30 15:01 | 38.72424 | 1.18001 | 38047 ft | 480 kts | 84° |
| 2026-04-30 15:01 | 38.73780 | 1.30670 | 38050 ft | 481 kts | 84° |
| 2026-04-30 15:02 | 38.74680 | 1.39156 | 38054 ft | 481 kts | 84° |
| 2026-04-30 15:03 | 38.76906 | 1.60418 | 38040 ft | 481 kts | 84° |
| 2026-04-30 15:04 | 38.79074 | 1.81475 | 36200 ft | 472 kts | 84° |
| 2026-04-30 15:05 | 38.81396 | 1.93940 | 31916 ft | 496 kts | 62° |
| 2026-04-30 15:06 | 38.85425 | 2.01188 | 28928 ft | 502 kts | 51° |
| 2026-04-30 15:06 | 38.89673 | 2.08097 | 26683 ft | 489 kts | 51° |
| 2026-04-30 15:07 | 38.92800 | 2.15655 | 24690 ft | 475 kts | 75° |
| 2026-04-30 15:07 | 38.93180 | 2.23791 | 23470 ft | 440 kts | 103° |
| 2026-04-30 15:08 | 38.90825 | 2.30459 | 22888 ft | 388 kts | 129° |
| 2026-04-30 15:08 | 38.86440 | 2.38527 | 21150 ft | 370 kts | 116° |
| 2026-04-30 15:09 | 38.85896 | 2.45200 | 18772 ft | 396 kts | 77° |
| 2026-04-30 15:09 | 38.88535 | 2.51361 | 16701 ft | 396 kts | 52° |
| 2026-04-30 15:10 | 38.91817 | 2.56910 | 15093 ft | 385 kts | 48° |
| 2026-04-30 15:11 | 39.00991 | 2.59162 | 11672 ft | 343 kts | 324° |
| 2026-04-30 15:11 | 39.03645 | 2.54495 | 10151 ft | 318 kts | 278° |
| 2026-04-30 15:12 | 39.03483 | 2.46861 | 9107 ft | 273 kts | 278° |
| 2026-04-30 15:13 | 39.05691 | 2.43001 | 7856 ft | 281 kts | 330° |
| 2026-04-30 15:14 | 39.12702 | 2.41528 | 6686 ft | 235 kts | 28° |
| 2026-04-30 15:14 | 39.15908 | 2.45943 | 6172 ft | 219 kts | 40° |
| 2026-04-30 15:16 | 39.24000 | 2.54385 | 5733 ft | 342 kts | 39° |
| 2026-04-30 15:17 | 39.30671 | 2.61710 | 5256 ft | 287 kts | 39° |
| 2026-04-30 15:18 | 39.37477 | 2.69172 | 4433 ft | 270 kts | 39° |
| 2026-04-30 15:19 | 39.41728 | 2.73843 | 4074 ft | 266 kts | 40° |